sensor_id;sensor_type;location;lat;lon;timestamp;P1;durP1;ratioP1;P2;durP2;ratioP2
73452;SDS011;61687;56.232;43.854;2024-01-30T00:01:55;24.75;;;11.20;;
73452;SDS011;61687;56.232;43.854;2024-01-30T00:04:20;23.57;;;10.00;;
73452;SDS011;61687;56.232;43.854;2024-01-30T00:06:46;26.27;;;11.25;;
73452;SDS011;61687;56.232;43.854;2024-01-30T00:09:12;27.13;;;11.13;;
73452;SDS011;61687;56.232;43.854;2024-01-30T00:11:38;27.87;;;11.70;;
73452;SDS011;61687;56.232;43.854;2024-01-30T00:14:05;26.02;;;11.07;;
73452;SDS011;61687;56.232;43.854;2024-01-30T00:16:31;26.27;;;11.80;;
73452;SDS011;61687;56.232;43.854;2024-01-30T00:18:57;27.90;;;11.85;;
73452;SDS011;61687;56.232;43.854;2024-01-30T00:21:23;25.88;;;10.85;;
73452;SDS011;61687;56.232;43.854;2024-01-30T00:23:49;23.80;;;9.90;;
73452;SDS011;61687;56.232;43.854;2024-01-30T00:26:15;27.73;;;10.77;;
73452;SDS011;61687;56.232;43.854;2024-01-30T00:28:41;25.10;;;10.70;;
73452;SDS011;61687;56.232;43.854;2024-01-30T00:31:07;26.95;;;11.02;;
73452;SDS011;61687;56.232;43.854;2024-01-30T00:33:38;24.88;;;10.90;;
73452;SDS011;61687;56.232;43.854;2024-01-30T00:36:05;20.77;;;9.33;;
73452;SDS011;61687;56.232;43.854;2024-01-30T00:38:34;27.13;;;10.95;;
73452;SDS011;61687;56.232;43.854;2024-01-30T00:41:01;26.30;;;11.07;;
73452;SDS011;61687;56.232;43.854;2024-01-30T00:43:30;22.98;;;10.13;;
73452;SDS011;61687;56.232;43.854;2024-01-30T00:45:57;23.17;;;10.48;;
73452;SDS011;61687;56.232;43.854;2024-01-30T00:48:23;25.07;;;10.87;;
73452;SDS011;61687;56.232;43.854;2024-01-30T00:50:49;23.88;;;10.98;;
73452;SDS011;61687;56.232;43.854;2024-01-30T00:53:15;25.27;;;11.07;;
73452;SDS011;61687;56.232;43.854;2024-01-30T00:55:41;23.77;;;10.68;;
73452;SDS011;61687;56.232;43.854;2024-01-30T00:58:07;20.05;;;8.55;;
73452;SDS011;61687;56.232;43.854;2024-01-30T01:00:33;23.83;;;9.75;;
73452;SDS011;61687;56.232;43.854;2024-01-30T01:02:59;25.57;;;10.90;;
73452;SDS011;61687;56.232;43.854;2024-01-30T01:05:25;24.15;;;10.50;;
73452;SDS011;61687;56.232;43.854;2024-01-30T01:07:51;24.60;;;10.80;;
73452;SDS011;61687;56.232;43.854;2024-01-30T01:10:17;24.35;;;11.40;;
73452;SDS011;61687;56.232;43.854;2024-01-30T01:12:44;21.97;;;9.70;;
73452;SDS011;61687;56.232;43.854;2024-01-30T01:15:11;27.38;;;10.52;;
73452;SDS011;61687;56.232;43.854;2024-01-30T01:17:38;23.08;;;10.45;;
73452;SDS011;61687;56.232;43.854;2024-01-30T01:20:05;23.52;;;10.75;;
73452;SDS011;61687;56.232;43.854;2024-01-30T01:22:32;23.02;;;10.57;;
73452;SDS011;61687;56.232;43.854;2024-01-30T01:24:59;22.33;;;9.47;;
73452;SDS011;61687;56.232;43.854;2024-01-30T01:27:26;21.65;;;9.50;;
73452;SDS011;61687;56.232;43.854;2024-01-30T01:29:52;20.95;;;9.88;;
73452;SDS011;61687;56.232;43.854;2024-01-30T01:32:18;25.02;;;11.25;;
73452;SDS011;61687;56.232;43.854;2024-01-30T01:34:44;27.98;;;10.57;;
73452;SDS011;61687;56.232;43.854;2024-01-30T01:37:10;21.23;;;9.17;;
73452;SDS011;61687;56.232;43.854;2024-01-30T01:39:36;22.33;;;9.50;;
73452;SDS011;61687;56.232;43.854;2024-01-30T01:42:02;22.10;;;10.32;;
73452;SDS011;61687;56.232;43.854;2024-01-30T01:44:28;24.63;;;10.57;;
73452;SDS011;61687;56.232;43.854;2024-01-30T01:46:55;25.63;;;10.37;;
73452;SDS011;61687;56.232;43.854;2024-01-30T01:49:23;24.17;;;10.07;;
73452;SDS011;61687;56.232;43.854;2024-01-30T01:51:53;21.67;;;9.85;;
73452;SDS011;61687;56.232;43.854;2024-01-30T01:54:22;24.95;;;10.57;;
73452;SDS011;61687;56.232;43.854;2024-01-30T01:56:51;23.90;;;9.88;;
73452;SDS011;61687;56.232;43.854;2024-01-30T01:59:18;23.70;;;10.82;;
73452;SDS011;61687;56.232;43.854;2024-01-30T02:01:45;23.33;;;9.93;;
73452;SDS011;61687;56.232;43.854;2024-01-30T02:04:15;24.27;;;10.70;;
73452;SDS011;61687;56.232;43.854;2024-01-30T02:06:43;22.67;;;10.25;;
73452;SDS011;61687;56.232;43.854;2024-01-30T02:09:09;21.13;;;10.07;;
73452;SDS011;61687;56.232;43.854;2024-01-30T02:11:35;21.63;;;9.13;;
73452;SDS011;61687;56.232;43.854;2024-01-30T02:14:02;23.65;;;10.02;;
73452;SDS011;61687;56.232;43.854;2024-01-30T02:16:31;22.05;;;9.25;;
73452;SDS011;61687;56.232;43.854;2024-01-30T02:18:57;19.92;;;9.35;;
73452;SDS011;61687;56.232;43.854;2024-01-30T02:21:34;21.47;;;9.40;;
73452;SDS011;61687;56.232;43.854;2024-01-30T02:24:00;20.55;;;9.95;;
73452;SDS011;61687;56.232;43.854;2024-01-30T02:26:27;23.42;;;10.77;;
73452;SDS011;61687;56.232;43.854;2024-01-30T02:28:53;21.67;;;9.25;;
73452;SDS011;61687;56.232;43.854;2024-01-30T02:31:19;19.50;;;9.53;;
73452;SDS011;61687;56.232;43.854;2024-01-30T02:33:44;23.33;;;9.95;;
73452;SDS011;61687;56.232;43.854;2024-01-30T02:36:10;24.37;;;10.40;;
73452;SDS011;61687;56.232;43.854;2024-01-30T02:38:36;22.55;;;9.93;;
73452;SDS011;61687;56.232;43.854;2024-01-30T02:41:02;22.23;;;10.57;;
73452;SDS011;61687;56.232;43.854;2024-01-30T02:43:28;21.15;;;9.60;;
73452;SDS011;61687;56.232;43.854;2024-01-30T02:45:53;23.75;;;10.98;;
73452;SDS011;61687;56.232;43.854;2024-01-30T02:48:19;22.27;;;9.80;;
73452;SDS011;61687;56.232;43.854;2024-01-30T02:50:45;28.20;;;10.60;;
73452;SDS011;61687;56.232;43.854;2024-01-30T02:53:12;25.17;;;11.65;;
73452;SDS011;61687;56.232;43.854;2024-01-30T02:55:38;25.17;;;8.77;;
73452;SDS011;61687;56.232;43.854;2024-01-30T02:58:04;25.35;;;10.30;;
73452;SDS011;61687;56.232;43.854;2024-01-30T03:00:29;21.93;;;9.97;;
73452;SDS011;61687;56.232;43.854;2024-01-30T03:02:56;24.55;;;10.00;;
73452;SDS011;61687;56.232;43.854;2024-01-30T03:05:21;23.60;;;10.43;;
73452;SDS011;61687;56.232;43.854;2024-01-30T03:07:47;23.63;;;11.43;;
73452;SDS011;61687;56.232;43.854;2024-01-30T03:10:13;20.90;;;9.23;;
73452;SDS011;61687;56.232;43.854;2024-01-30T03:12:39;23.92;;;10.05;;
73452;SDS011;61687;56.232;43.854;2024-01-30T03:15:05;22.33;;;9.88;;
73452;SDS011;61687;56.232;43.854;2024-01-30T03:17:31;22.63;;;9.98;;
73452;SDS011;61687;56.232;43.854;2024-01-30T03:19:57;27.67;;;10.82;;
73452;SDS011;61687;56.232;43.854;2024-01-30T03:22:23;22.43;;;9.93;;
73452;SDS011;61687;56.232;43.854;2024-01-30T03:24:49;24.42;;;10.45;;
73452;SDS011;61687;56.232;43.854;2024-01-30T03:27:15;21.10;;;10.00;;
73452;SDS011;61687;56.232;43.854;2024-01-30T03:29:41;25.00;;;10.63;;
73452;SDS011;61687;56.232;43.854;2024-01-30T03:32:07;21.65;;;11.02;;
73452;SDS011;61687;56.232;43.854;2024-01-30T03:34:33;26.77;;;11.27;;
73452;SDS011;61687;56.232;43.854;2024-01-30T03:36:59;26.40;;;10.97;;
73452;SDS011;61687;56.232;43.854;2024-01-30T03:39:24;22.85;;;11.38;;
73452;SDS011;61687;56.232;43.854;2024-01-30T03:41:50;25.63;;;11.50;;
73452;SDS011;61687;56.232;43.854;2024-01-30T03:44:16;30.65;;;13.63;;
73452;SDS011;61687;56.232;43.854;2024-01-30T03:46:42;27.03;;;11.70;;
73452;SDS011;61687;56.232;43.854;2024-01-30T03:49:07;30.67;;;12.15;;
73452;SDS011;61687;56.232;43.854;2024-01-30T03:51:34;23.52;;;10.85;;
73452;SDS011;61687;56.232;43.854;2024-01-30T03:54:00;28.57;;;12.17;;
73452;SDS011;61687;56.232;43.854;2024-01-30T03:56:26;24.85;;;10.95;;
73452;SDS011;61687;56.232;43.854;2024-01-30T03:58:52;23.70;;;10.60;;
73452;SDS011;61687;56.232;43.854;2024-01-30T04:01:17;26.90;;;11.90;;
73452;SDS011;61687;56.232;43.854;2024-01-30T04:03:44;26.45;;;11.48;;
73452;SDS011;61687;56.232;43.854;2024-01-30T04:06:10;27.30;;;12.07;;
73452;SDS011;61687;56.232;43.854;2024-01-30T04:08:36;28.83;;;12.93;;
73452;SDS011;61687;56.232;43.854;2024-01-30T04:11:04;29.17;;;11.57;;
73452;SDS011;61687;56.232;43.854;2024-01-30T04:13:31;26.88;;;11.90;;
73452;SDS011;61687;56.232;43.854;2024-01-30T04:16:01;28.15;;;12.15;;
73452;SDS011;61687;56.232;43.854;2024-01-30T04:18:28;26.58;;;11.68;;
73452;SDS011;61687;56.232;43.854;2024-01-30T04:20:56;26.35;;;12.25;;
73452;SDS011;61687;56.232;43.854;2024-01-30T04:23:22;25.73;;;11.87;;
73452;SDS011;61687;56.232;43.854;2024-01-30T04:25:48;27.95;;;11.60;;
73452;SDS011;61687;56.232;43.854;2024-01-30T04:28:14;30.27;;;12.60;;
73452;SDS011;61687;56.232;43.854;2024-01-30T04:30:40;26.38;;;11.32;;
73452;SDS011;61687;56.232;43.854;2024-01-30T04:33:06;26.88;;;12.77;;
73452;SDS011;61687;56.232;43.854;2024-01-30T04:35:32;26.10;;;12.60;;
73452;SDS011;61687;56.232;43.854;2024-01-30T04:37:58;28.13;;;14.20;;
73452;SDS011;61687;56.232;43.854;2024-01-30T04:40:23;33.67;;;12.83;;
73452;SDS011;61687;56.232;43.854;2024-01-30T04:42:49;27.15;;;11.75;;
73452;SDS011;61687;56.232;43.854;2024-01-30T04:45:15;29.05;;;12.73;;
73452;SDS011;61687;56.232;43.854;2024-01-30T04:47:41;27.43;;;11.87;;
73452;SDS011;61687;56.232;43.854;2024-01-30T04:50:07;27.63;;;12.57;;
73452;SDS011;61687;56.232;43.854;2024-01-30T04:52:34;27.35;;;12.32;;
73452;SDS011;61687;56.232;43.854;2024-01-30T04:55:01;24.50;;;11.83;;
73452;SDS011;61687;56.232;43.854;2024-01-30T04:57:30;27.02;;;11.82;;
73452;SDS011;61687;56.232;43.854;2024-01-30T04:59:57;31.10;;;13.20;;
73452;SDS011;61687;56.232;43.854;2024-01-30T05:02:23;28.80;;;11.50;;
73452;SDS011;61687;56.232;43.854;2024-01-30T05:04:48;33.00;;;12.97;;
73452;SDS011;61687;56.232;43.854;2024-01-30T05:07:14;28.17;;;13.10;;
73452;SDS011;61687;56.232;43.854;2024-01-30T05:09:40;27.20;;;12.13;;
73452;SDS011;61687;56.232;43.854;2024-01-30T05:12:06;31.93;;;13.57;;
73452;SDS011;61687;56.232;43.854;2024-01-30T05:14:32;30.38;;;13.20;;
73452;SDS011;61687;56.232;43.854;2024-01-30T05:16:58;28.08;;;11.77;;
73452;SDS011;61687;56.232;43.854;2024-01-30T05:19:24;30.75;;;12.05;;
73452;SDS011;61687;56.232;43.854;2024-01-30T05:21:50;30.10;;;13.20;;
73452;SDS011;61687;56.232;43.854;2024-01-30T05:24:16;29.33;;;12.77;;
73452;SDS011;61687;56.232;43.854;2024-01-30T05:26:41;29.45;;;11.68;;
73452;SDS011;61687;56.232;43.854;2024-01-30T05:29:07;27.13;;;11.63;;
73452;SDS011;61687;56.232;43.854;2024-01-30T05:31:33;31.90;;;13.00;;
73452;SDS011;61687;56.232;43.854;2024-01-30T05:34:00;27.98;;;11.75;;
73452;SDS011;61687;56.232;43.854;2024-01-30T05:36:26;34.00;;;13.70;;
73452;SDS011;61687;56.232;43.854;2024-01-30T05:38:52;31.27;;;11.95;;
73452;SDS011;61687;56.232;43.854;2024-01-30T05:41:18;27.90;;;12.03;;
73452;SDS011;61687;56.232;43.854;2024-01-30T05:43:46;26.88;;;11.75;;
73452;SDS011;61687;56.232;43.854;2024-01-30T05:46:13;27.58;;;11.85;;
73452;SDS011;61687;56.232;43.854;2024-01-30T05:48:39;26.63;;;11.60;;
73452;SDS011;61687;56.232;43.854;2024-01-30T05:51:04;27.80;;;10.55;;
73452;SDS011;61687;56.232;43.854;2024-01-30T05:53:32;30.77;;;10.82;;
73452;SDS011;61687;56.232;43.854;2024-01-30T05:55:59;26.57;;;11.00;;
73452;SDS011;61687;56.232;43.854;2024-01-30T05:58:26;25.40;;;11.38;;
73452;SDS011;61687;56.232;43.854;2024-01-30T06:00:52;27.65;;;11.15;;
73452;SDS011;61687;56.232;43.854;2024-01-30T06:03:18;27.90;;;11.37;;
73452;SDS011;61687;56.232;43.854;2024-01-30T06:05:43;27.58;;;11.88;;
73452;SDS011;61687;56.232;43.854;2024-01-30T06:08:09;24.40;;;11.07;;
73452;SDS011;61687;56.232;43.854;2024-01-30T06:10:35;25.50;;;11.85;;
73452;SDS011;61687;56.232;43.854;2024-01-30T06:13:01;28.42;;;12.32;;
73452;SDS011;61687;56.232;43.854;2024-01-30T06:15:27;24.75;;;10.85;;
73452;SDS011;61687;56.232;43.854;2024-01-30T06:17:55;29.83;;;11.43;;
73452;SDS011;61687;56.232;43.854;2024-01-30T06:20:21;29.30;;;12.27;;
73452;SDS011;61687;56.232;43.854;2024-01-30T06:22:46;30.33;;;11.90;;
73452;SDS011;61687;56.232;43.854;2024-01-30T06:25:12;28.43;;;10.97;;
73452;SDS011;61687;56.232;43.854;2024-01-30T06:27:38;28.10;;;12.73;;
73452;SDS011;61687;56.232;43.854;2024-01-30T06:30:04;26.90;;;12.03;;
73452;SDS011;61687;56.232;43.854;2024-01-30T06:32:31;26.92;;;11.45;;
73452;SDS011;61687;56.232;43.854;2024-01-30T06:35:00;25.95;;;11.98;;
73452;SDS011;61687;56.232;43.854;2024-01-30T06:37:27;27.15;;;11.45;;
73452;SDS011;61687;56.232;43.854;2024-01-30T06:39:53;28.53;;;11.33;;
73452;SDS011;61687;56.232;43.854;2024-01-30T06:42:19;26.63;;;10.75;;
73452;SDS011;61687;56.232;43.854;2024-01-30T06:44:45;27.98;;;11.20;;
73452;SDS011;61687;56.232;43.854;2024-01-30T06:47:10;31.42;;;12.70;;
73452;SDS011;61687;56.232;43.854;2024-01-30T06:49:36;28.00;;;12.45;;
73452;SDS011;61687;56.232;43.854;2024-01-30T06:52:06;26.30;;;11.55;;
73452;SDS011;61687;56.232;43.854;2024-01-30T06:54:32;25.08;;;10.70;;
73452;SDS011;61687;56.232;43.854;2024-01-30T06:56:58;23.70;;;10.03;;
73452;SDS011;61687;56.232;43.854;2024-01-30T06:59:24;23.70;;;10.90;;
73452;SDS011;61687;56.232;43.854;2024-01-30T07:01:50;24.35;;;10.13;;
73452;SDS011;61687;56.232;43.854;2024-01-30T07:04:16;24.00;;;10.35;;
73452;SDS011;61687;56.232;43.854;2024-01-30T07:06:42;22.95;;;10.43;;
73452;SDS011;61687;56.232;43.854;2024-01-30T07:09:08;22.42;;;10.05;;
73452;SDS011;61687;56.232;43.854;2024-01-30T07:11:34;22.98;;;9.50;;
73452;SDS011;61687;56.232;43.854;2024-01-30T07:13:59;22.02;;;10.30;;
73452;SDS011;61687;56.232;43.854;2024-01-30T07:16:25;21.33;;;10.35;;
73452;SDS011;61687;56.232;43.854;2024-01-30T07:18:51;24.67;;;10.43;;
73452;SDS011;61687;56.232;43.854;2024-01-30T07:21:18;22.80;;;10.35;;
73452;SDS011;61687;56.232;43.854;2024-01-30T07:23:44;21.45;;;9.20;;
73452;SDS011;61687;56.232;43.854;2024-01-30T07:26:10;21.47;;;10.73;;
73452;SDS011;61687;56.232;43.854;2024-01-30T07:28:36;27.58;;;9.93;;
73452;SDS011;61687;56.232;43.854;2024-01-30T07:31:02;23.05;;;10.00;;
73452;SDS011;61687;56.232;43.854;2024-01-30T07:33:28;24.00;;;9.93;;
73452;SDS011;61687;56.232;43.854;2024-01-30T07:35:54;22.23;;;9.40;;
73452;SDS011;61687;56.232;43.854;2024-01-30T07:38:20;22.10;;;10.10;;
73452;SDS011;61687;56.232;43.854;2024-01-30T07:40:46;20.15;;;8.68;;
73452;SDS011;61687;56.232;43.854;2024-01-30T07:43:12;21.45;;;9.80;;
73452;SDS011;61687;56.232;43.854;2024-01-30T07:45:38;19.30;;;9.98;;
73452;SDS011;61687;56.232;43.854;2024-01-30T07:48:05;25.80;;;10.45;;
73452;SDS011;61687;56.232;43.854;2024-01-30T07:50:31;21.67;;;10.52;;
73452;SDS011;61687;56.232;43.854;2024-01-30T07:52:58;22.63;;;9.50;;
73452;SDS011;61687;56.232;43.854;2024-01-30T07:55:25;21.38;;;10.10;;
73452;SDS011;61687;56.232;43.854;2024-01-30T07:57:57;21.42;;;10.82;;
73452;SDS011;61687;56.232;43.854;2024-01-30T08:00:24;23.15;;;10.85;;
73452;SDS011;61687;56.232;43.854;2024-01-30T08:02:50;19.27;;;9.57;;
73452;SDS011;61687;56.232;43.854;2024-01-30T08:05:16;21.30;;;9.40;;
73452;SDS011;61687;56.232;43.854;2024-01-30T08:07:41;20.90;;;9.23;;
73452;SDS011;61687;56.232;43.854;2024-01-30T08:10:08;20.98;;;9.48;;
73452;SDS011;61687;56.232;43.854;2024-01-30T08:12:34;21.73;;;10.63;;
73452;SDS011;61687;56.232;43.854;2024-01-30T08:15:00;21.42;;;9.90;;
73452;SDS011;61687;56.232;43.854;2024-01-30T08:17:26;18.88;;;9.40;;
73452;SDS011;61687;56.232;43.854;2024-01-30T08:19:51;21.97;;;9.23;;
73452;SDS011;61687;56.232;43.854;2024-01-30T08:22:17;20.95;;;9.40;;
73452;SDS011;61687;56.232;43.854;2024-01-30T08:24:43;21.07;;;9.47;;
73452;SDS011;61687;56.232;43.854;2024-01-30T08:27:09;26.15;;;9.52;;
73452;SDS011;61687;56.232;43.854;2024-01-30T08:29:35;19.38;;;9.75;;
73452;SDS011;61687;56.232;43.854;2024-01-30T08:32:01;19.47;;;8.70;;
73452;SDS011;61687;56.232;43.854;2024-01-30T08:34:27;20.38;;;8.98;;
73452;SDS011;61687;56.232;43.854;2024-01-30T08:36:53;18.95;;;8.45;;
73452;SDS011;61687;56.232;43.854;2024-01-30T08:39:19;24.07;;;9.07;;
73452;SDS011;61687;56.232;43.854;2024-01-30T08:41:45;19.73;;;8.88;;
73452;SDS011;61687;56.232;43.854;2024-01-30T08:44:11;20.95;;;10.02;;
73452;SDS011;61687;56.232;43.854;2024-01-30T08:46:37;27.20;;;9.32;;
73452;SDS011;61687;56.232;43.854;2024-01-30T08:49:03;23.30;;;8.60;;
73452;SDS011;61687;56.232;43.854;2024-01-30T08:51:32;18.10;;;9.73;;
73452;SDS011;61687;56.232;43.854;2024-01-30T08:53:58;16.63;;;8.18;;
73452;SDS011;61687;56.232;43.854;2024-01-30T08:56:23;18.63;;;8.67;;
73452;SDS011;61687;56.232;43.854;2024-01-30T08:58:49;19.13;;;9.02;;
73452;SDS011;61687;56.232;43.854;2024-01-30T09:01:15;20.23;;;8.57;;
73452;SDS011;61687;56.232;43.854;2024-01-30T09:03:41;20.90;;;7.93;;
73452;SDS011;61687;56.232;43.854;2024-01-30T09:06:11;17.15;;;8.75;;
73452;SDS011;61687;56.232;43.854;2024-01-30T09:08:38;22.23;;;9.23;;
73452;SDS011;61687;56.232;43.854;2024-01-30T09:11:13;23.77;;;8.93;;
73452;SDS011;61687;56.232;43.854;2024-01-30T09:13:40;19.38;;;8.32;;
73452;SDS011;61687;56.232;43.854;2024-01-30T09:16:06;17.08;;;8.40;;
73452;SDS011;61687;56.232;43.854;2024-01-30T09:18:32;21.95;;;9.20;;
73452;SDS011;61687;56.232;43.854;2024-01-30T09:20:58;19.67;;;9.40;;
73452;SDS011;61687;56.232;43.854;2024-01-30T09:23:24;27.08;;;9.70;;
73452;SDS011;61687;56.232;43.854;2024-01-30T09:25:53;19.90;;;9.38;;
73452;SDS011;61687;56.232;43.854;2024-01-30T09:28:19;23.00;;;8.82;;
73452;SDS011;61687;56.232;43.854;2024-01-30T09:30:45;18.97;;;8.83;;
73452;SDS011;61687;56.232;43.854;2024-01-30T09:33:11;24.88;;;9.18;;
73452;SDS011;61687;56.232;43.854;2024-01-30T09:35:36;22.83;;;8.80;;
73452;SDS011;61687;56.232;43.854;2024-01-30T09:38:02;20.38;;;9.38;;
73452;SDS011;61687;56.232;43.854;2024-01-30T09:40:29;16.45;;;7.38;;
73452;SDS011;61687;56.232;43.854;2024-01-30T09:42:55;19.80;;;8.85;;
73452;SDS011;61687;56.232;43.854;2024-01-30T09:45:24;18.65;;;8.88;;
73452;SDS011;61687;56.232;43.854;2024-01-30T09:47:51;19.77;;;8.73;;
73452;SDS011;61687;56.232;43.854;2024-01-30T09:50:18;21.65;;;9.10;;
73452;SDS011;61687;56.232;43.854;2024-01-30T09:52:44;25.20;;;9.88;;
73452;SDS011;61687;56.232;43.854;2024-01-30T09:55:10;21.58;;;9.55;;
73452;SDS011;61687;56.232;43.854;2024-01-30T09:57:36;19.80;;;9.27;;
73452;SDS011;61687;56.232;43.854;2024-01-30T10:00:03;19.55;;;9.55;;
73452;SDS011;61687;56.232;43.854;2024-01-30T10:02:38;22.63;;;8.80;;
73452;SDS011;61687;56.232;43.854;2024-01-30T10:05:05;17.83;;;8.07;;
73452;SDS011;61687;56.232;43.854;2024-01-30T10:07:31;19.77;;;8.27;;
73452;SDS011;61687;56.232;43.854;2024-01-30T10:09:57;14.13;;;7.25;;
73452;SDS011;61687;56.232;43.854;2024-01-30T10:12:25;18.90;;;8.07;;
73452;SDS011;61687;56.232;43.854;2024-01-30T10:14:51;17.48;;;8.15;;
73452;SDS011;61687;56.232;43.854;2024-01-30T10:17:17;19.77;;;8.52;;
73452;SDS011;61687;56.232;43.854;2024-01-30T10:19:43;12.17;;;6.47;;
73452;SDS011;61687;56.232;43.854;2024-01-30T10:22:10;17.02;;;8.00;;
73452;SDS011;61687;56.232;43.854;2024-01-30T10:24:36;15.38;;;7.72;;
73452;SDS011;61687;56.232;43.854;2024-01-30T10:27:02;15.05;;;7.68;;
73452;SDS011;61687;56.232;43.854;2024-01-30T10:29:28;16.02;;;8.38;;
73452;SDS011;61687;56.232;43.854;2024-01-30T10:32:12;15.90;;;7.15;;
73452;SDS011;61687;56.232;43.854;2024-01-30T10:34:38;16.15;;;7.05;;
73452;SDS011;61687;56.232;43.854;2024-01-30T10:37:08;14.13;;;7.37;;
73452;SDS011;61687;56.232;43.854;2024-01-30T10:39:42;15.35;;;7.15;;
73452;SDS011;61687;56.232;43.854;2024-01-30T10:42:12;14.48;;;6.90;;
73452;SDS011;61687;56.232;43.854;2024-01-30T10:44:51;19.50;;;7.47;;
73452;SDS011;61687;56.232;43.854;2024-01-30T10:47:34;15.43;;;6.87;;
73452;SDS011;61687;56.232;43.854;2024-01-30T10:50:02;14.90;;;6.78;;
73452;SDS011;61687;56.232;43.854;2024-01-30T10:52:29;17.50;;;7.43;;
73452;SDS011;61687;56.232;43.854;2024-01-30T10:54:56;16.23;;;6.72;;
73452;SDS011;61687;56.232;43.854;2024-01-30T10:57:23;19.48;;;6.88;;
73452;SDS011;61687;56.232;43.854;2024-01-30T10:59:51;15.87;;;6.10;;
73452;SDS011;61687;56.232;43.854;2024-01-30T11:02:18;17.83;;;7.07;;
73452;SDS011;61687;56.232;43.854;2024-01-30T11:04:45;18.73;;;7.63;;
73452;SDS011;61687;56.232;43.854;2024-01-30T11:07:17;17.83;;;7.63;;
73452;SDS011;61687;56.232;43.854;2024-01-30T11:09:54;15.65;;;7.15;;
73452;SDS011;61687;56.232;43.854;2024-01-30T11:12:32;17.87;;;7.37;;
73452;SDS011;61687;56.232;43.854;2024-01-30T11:15:03;14.18;;;6.95;;
73452;SDS011;61687;56.232;43.854;2024-01-30T11:20:14;14.52;;;7.57;;
73452;SDS011;61687;56.232;43.854;2024-01-30T11:22:50;15.82;;;6.82;;
73452;SDS011;61687;56.232;43.854;2024-01-30T11:25:19;14.13;;;6.50;;
73452;SDS011;61687;56.232;43.854;2024-01-30T11:27:46;13.68;;;6.55;;
73452;SDS011;61687;56.232;43.854;2024-01-30T11:30:24;14.27;;;7.00;;
73452;SDS011;61687;56.232;43.854;2024-01-30T11:33:10;14.20;;;6.90;;
73452;SDS011;61687;56.232;43.854;2024-01-30T11:35:40;13.70;;;6.53;;
73452;SDS011;61687;56.232;43.854;2024-01-30T11:38:08;13.83;;;6.30;;
73452;SDS011;61687;56.232;43.854;2024-01-30T11:40:37;15.00;;;7.18;;
73452;SDS011;61687;56.232;43.854;2024-01-30T11:43:04;13.93;;;6.63;;
73452;SDS011;61687;56.232;43.854;2024-01-30T11:45:32;16.17;;;7.18;;
73452;SDS011;61687;56.232;43.854;2024-01-30T11:47:58;19.42;;;7.70;;
73452;SDS011;61687;56.232;43.854;2024-01-30T11:50:30;18.23;;;7.80;;
73452;SDS011;61687;56.232;43.854;2024-01-30T11:52:56;17.25;;;7.60;;
73452;SDS011;61687;56.232;43.854;2024-01-30T11:55:23;15.05;;;8.25;;
73452;SDS011;61687;56.232;43.854;2024-01-30T11:57:49;25.27;;;8.50;;
73452;SDS011;61687;56.232;43.854;2024-01-30T12:00:16;15.33;;;7.73;;
73452;SDS011;61687;56.232;43.854;2024-01-30T12:02:51;18.17;;;8.13;;
73452;SDS011;61687;56.232;43.854;2024-01-30T12:05:21;18.80;;;7.78;;
73452;SDS011;61687;56.232;43.854;2024-01-30T12:07:48;17.05;;;7.70;;
73452;SDS011;61687;56.232;43.854;2024-01-30T12:10:14;17.38;;;7.75;;
73452;SDS011;61687;56.232;43.854;2024-01-30T12:12:41;23.23;;;9.27;;
73452;SDS011;61687;56.232;43.854;2024-01-30T12:15:08;16.08;;;8.05;;
73452;SDS011;61687;56.232;43.854;2024-01-30T12:17:35;25.88;;;11.15;;
73452;SDS011;61687;56.232;43.854;2024-01-30T12:22:38;17.58;;;7.32;;
73452;SDS011;61687;56.232;43.854;2024-01-30T12:25:08;13.52;;;7.55;;
73452;SDS011;61687;56.232;43.854;2024-01-30T12:27:38;14.68;;;7.43;;
73452;SDS011;61687;56.232;43.854;2024-01-30T12:30:08;14.07;;;7.55;;
73452;SDS011;61687;56.232;43.854;2024-01-30T12:32:36;18.93;;;6.83;;
73452;SDS011;61687;56.232;43.854;2024-01-30T12:35:02;17.35;;;8.00;;
73452;SDS011;61687;56.232;43.854;2024-01-30T12:37:30;18.77;;;7.88;;
73452;SDS011;61687;56.232;43.854;2024-01-30T12:39:56;15.55;;;7.78;;
73452;SDS011;61687;56.232;43.854;2024-01-30T12:42:22;18.65;;;8.05;;
73452;SDS011;61687;56.232;43.854;2024-01-30T12:44:48;19.13;;;7.93;;
73452;SDS011;61687;56.232;43.854;2024-01-30T12:47:15;13.10;;;7.50;;
73452;SDS011;61687;56.232;43.854;2024-01-30T12:49:42;17.23;;;8.50;;
73452;SDS011;61687;56.232;43.854;2024-01-30T12:52:13;17.70;;;7.82;;
73452;SDS011;61687;56.232;43.854;2024-01-30T12:54:41;16.43;;;7.93;;
73452;SDS011;61687;56.232;43.854;2024-01-30T12:57:07;18.80;;;7.28;;
73452;SDS011;61687;56.232;43.854;2024-01-30T12:59:33;17.85;;;8.23;;
73452;SDS011;61687;56.232;43.854;2024-01-30T13:02:00;23.75;;;8.73;;
73452;SDS011;61687;56.232;43.854;2024-01-30T13:04:27;19.63;;;8.23;;
73452;SDS011;61687;56.232;43.854;2024-01-30T13:06:53;16.33;;;7.82;;
73452;SDS011;61687;56.232;43.854;2024-01-30T13:09:19;18.25;;;8.05;;
73452;SDS011;61687;56.232;43.854;2024-01-30T13:11:45;20.52;;;9.80;;
73452;SDS011;61687;56.232;43.854;2024-01-30T13:14:12;21.30;;;9.35;;
73452;SDS011;61687;56.232;43.854;2024-01-30T13:16:37;21.87;;;9.77;;
73452;SDS011;61687;56.232;43.854;2024-01-30T13:19:03;19.80;;;9.60;;
73452;SDS011;61687;56.232;43.854;2024-01-30T13:21:29;22.45;;;9.15;;
73452;SDS011;61687;56.232;43.854;2024-01-30T13:23:55;18.60;;;9.93;;
73452;SDS011;61687;56.232;43.854;2024-01-30T13:26:21;19.08;;;9.80;;
73452;SDS011;61687;56.232;43.854;2024-01-30T13:28:47;22.92;;;9.77;;
73452;SDS011;61687;56.232;43.854;2024-01-30T13:31:16;31.80;;;9.67;;
73452;SDS011;61687;56.232;43.854;2024-01-30T13:33:41;19.90;;;9.88;;
73452;SDS011;61687;56.232;43.854;2024-01-30T13:36:08;21.30;;;10.07;;
73452;SDS011;61687;56.232;43.854;2024-01-30T13:38:35;19.10;;;9.68;;
73452;SDS011;61687;56.232;43.854;2024-01-30T13:41:01;23.23;;;9.77;;
73452;SDS011;61687;56.232;43.854;2024-01-30T13:43:28;21.70;;;9.55;;
73452;SDS011;61687;56.232;43.854;2024-01-30T13:45:54;22.45;;;10.38;;
73452;SDS011;61687;56.232;43.854;2024-01-30T13:48:20;21.08;;;10.48;;
73452;SDS011;61687;56.232;43.854;2024-01-30T13:50:47;22.92;;;9.80;;
73452;SDS011;61687;56.232;43.854;2024-01-30T13:53:13;24.25;;;10.32;;
73452;SDS011;61687;56.232;43.854;2024-01-30T13:55:39;23.88;;;11.02;;
73452;SDS011;61687;56.232;43.854;2024-01-30T13:58:05;25.88;;;11.10;;
73452;SDS011;61687;56.232;43.854;2024-01-30T14:00:35;27.30;;;11.63;;
73452;SDS011;61687;56.232;43.854;2024-01-30T14:03:01;24.23;;;10.43;;
73452;SDS011;61687;56.232;43.854;2024-01-30T14:05:27;26.67;;;11.82;;
73452;SDS011;61687;56.232;43.854;2024-01-30T14:07:53;25.77;;;11.82;;
73452;SDS011;61687;56.232;43.854;2024-01-30T14:10:19;28.07;;;11.33;;
73452;SDS011;61687;56.232;43.854;2024-01-30T14:12:46;27.48;;;11.55;;
73452;SDS011;61687;56.232;43.854;2024-01-30T14:15:14;27.50;;;12.35;;
73452;SDS011;61687;56.232;43.854;2024-01-30T14:17:46;25.38;;;10.70;;
73452;SDS011;61687;56.232;43.854;2024-01-30T14:20:14;30.50;;;11.23;;